createdAt,value
2018-02-16T00:00:01.859Z,0.00
2018-02-16T00:01:01.810Z,0.00
2018-02-16T00:02:01.804Z,0.00
2018-02-16T00:03:01.800Z,0.00
2018-02-16T00:04:01.800Z,0.00
2018-02-16T00:05:01.828Z,0.00
2018-02-16T00:06:01.785Z,0.00
2018-02-16T00:07:01.783Z,0.00
2018-02-16T00:08:01.777Z,0.00
2018-02-16T00:09:01.769Z,0.00
2018-02-16T00:10:01.806Z,0.00
2018-02-16T00:11:01.789Z,0.00
2018-02-16T00:12:01.762Z,0.00
2018-02-16T00:13:01.754Z,0.00
2018-02-16T00:14:01.754Z,0.00
2018-02-16T00:15:01.782Z,0.00
2018-02-16T00:16:01.739Z,0.00
2018-02-16T00:17:01.741Z,0.00
2018-02-16T00:18:01.731Z,0.00
2018-02-16T00:19:01.732Z,0.00
2018-02-16T00:20:01.767Z,0.00
2018-02-16T00:21:01.716Z,0.00
2018-02-16T00:22:01.712Z,0.00
2018-02-16T00:23:01.711Z,0.00
2018-02-16T00:24:01.705Z,0.00
2018-02-16T00:25:01.758Z,0.00
2018-02-16T00:26:01.698Z,0.00
2018-02-16T00:27:01.732Z,0.00
2018-02-16T00:28:01.788Z,0.00
2018-02-16T00:29:01.683Z,0.00
2018-02-16T00:30:01.676Z,0.00
2018-02-16T00:31:01.715Z,0.00
2018-02-16T00:32:01.670Z,0.00
2018-02-16T00:33:01.672Z,0.00
2018-02-16T00:34:01.657Z,0.00
2018-02-16T00:35:01.653Z,0.00
2018-02-16T00:36:01.692Z,0.00
2018-02-16T00:37:01.647Z,0.00
2018-02-16T00:38:01.648Z,0.00
2018-02-16T00:39:01.637Z,0.00
2018-02-16T00:40:01.631Z,0.00
2018-02-16T00:41:01.666Z,0.00
2018-02-16T00:42:01.622Z,0.00
2018-02-16T00:43:01.633Z,0.00
2018-02-16T00:44:01.618Z,0.00
2018-02-16T00:45:01.612Z,0.00
2018-02-16T00:46:01.649Z,0.00
2018-02-16T00:47:01.605Z,0.00
2018-02-16T00:48:01.605Z,0.00
2018-02-16T00:49:01.602Z,0.00
2018-02-16T00:50:01.607Z,0.00
2018-02-16T00:51:01.630Z,0.00
2018-02-16T00:52:01.583Z,0.00
2018-02-16T00:53:01.579Z,0.00
2018-02-16T00:54:01.572Z,0.00
2018-02-16T00:55:01.598Z,0.00
2018-02-16T00:56:01.602Z,0.00
2018-02-16T00:57:01.559Z,0.00
2018-02-16T00:58:01.575Z,0.00
2018-02-16T00:59:01.556Z,0.00
2018-02-16T01:00:01.545Z,0.00
2018-02-16T01:01:01.579Z,0.00
2018-02-16T01:02:01.538Z,0.00
2018-02-16T01:03:01.536Z,0.00
2018-02-16T01:04:01.535Z,0.00
2018-02-16T01:05:01.582Z,0.00
2018-02-16T01:06:01.574Z,0.00
2018-02-16T01:07:01.520Z,0.00
2018-02-16T01:08:01.508Z,0.00
2018-02-16T01:09:01.546Z,0.00
2018-02-16T01:10:01.499Z,0.00
2018-02-16T01:11:01.496Z,0.00
2018-02-16T01:12:01.535Z,0.00
2018-02-16T01:13:01.484Z,0.00
2018-02-16T01:14:01.480Z,0.00
2018-02-16T01:15:01.476Z,0.00
2018-02-16T01:16:01.475Z,0.00
2018-02-16T01:17:01.535Z,0.00
2018-02-16T01:18:01.475Z,0.00
2018-02-16T01:19:01.498Z,0.00
2018-02-16T01:20:01.456Z,0.00
2018-02-16T01:21:01.449Z,0.00
2018-02-16T01:22:01.443Z,0.00
2018-02-16T01:23:01.484Z,0.00
2018-02-16T01:24:01.437Z,0.00
2018-02-16T01:25:01.437Z,0.00
2018-02-16T01:26:01.433Z,0.00
2018-02-16T01:27:01.422Z,0.00
2018-02-16T01:28:01.475Z,0.00
2018-02-16T01:29:01.414Z,0.00
2018-02-16T01:30:01.411Z,0.00
2018-02-16T01:31:01.413Z,0.00
2018-02-16T01:32:01.400Z,0.00
2018-02-16T01:33:01.453Z,0.00
2018-02-16T01:34:01.390Z,0.00
2018-02-16T01:35:01.390Z,0.00
2018-02-16T01:36:01.378Z,0.00
2018-02-16T01:37:01.379Z,0.00
2018-02-16T01:38:01.412Z,0.00
2018-02-16T01:39:01.407Z,0.00
2018-02-16T01:40:01.365Z,0.00
2018-02-16T01:41:02.296Z,0.00
2018-02-16T01:42:01.353Z,0.00
2018-02-16T01:43:01.352Z,0.00
2018-02-16T01:44:01.441Z,0.00
2018-02-16T01:45:01.340Z,0.00
2018-02-16T01:46:01.339Z,0.00
2018-02-16T01:47:01.367Z,0.00
2018-02-16T01:48:01.326Z,0.00
2018-02-16T01:49:01.319Z,0.00
2018-02-16T01:50:01.357Z,0.00
2018-02-16T01:51:01.312Z,0.00
2018-02-16T01:52:01.307Z,0.00
2018-02-16T01:53:01.307Z,0.00
2018-02-16T01:54:01.296Z,0.00
2018-02-16T01:55:01.337Z,0.00
2018-02-16T01:56:01.291Z,0.00
2018-02-16T01:57:01.284Z,0.00
2018-02-16T01:58:01.283Z,0.00
2018-02-16T01:59:01.273Z,0.00
2018-02-16T02:00:01.306Z,0.00
2018-02-16T02:01:01.266Z,0.00
2018-02-16T02:02:01.261Z,0.00
2018-02-16T02:03:01.254Z,0.00
2018-02-16T02:04:01.250Z,0.00
2018-02-16T02:05:01.301Z,0.00
2018-02-16T02:06:01.280Z,0.00
2018-02-16T02:07:01.241Z,0.00
2018-02-16T02:08:01.244Z,0.00
2018-02-16T02:09:01.633Z,0.00
2018-02-16T02:10:01.227Z,0.00
2018-02-16T02:11:01.258Z,0.00
2018-02-16T02:12:01.216Z,0.00
2018-02-16T02:13:01.211Z,0.00
2018-02-16T02:14:01.203Z,0.00
2018-02-16T02:15:01.198Z,0.00
2018-02-16T02:16:01.240Z,0.00
2018-02-16T02:17:01.190Z,0.00
2018-02-16T02:18:01.183Z,0.00
2018-02-16T02:19:01.178Z,0.00
2018-02-16T02:20:01.211Z,0.00
2018-02-16T02:21:01.175Z,0.00
2018-02-16T02:22:01.164Z,0.00
2018-02-16T02:23:01.175Z,0.00
2018-02-16T02:24:01.156Z,0.00
2018-02-16T02:25:01.206Z,0.00
2018-02-16T02:26:01.147Z,0.00
2018-02-16T02:27:01.144Z,0.00
2018-02-16T02:28:01.136Z,0.00
2018-02-16T02:29:01.133Z,0.00
2018-02-16T02:30:01.171Z,0.00
2018-02-16T02:31:01.132Z,0.00
2018-02-16T02:32:01.118Z,0.00
2018-02-16T02:33:01.115Z,0.00
2018-02-16T02:34:01.121Z,0.00
2018-02-16T02:35:01.143Z,0.00
2018-02-16T02:36:01.102Z,0.00
2018-02-16T02:37:01.098Z,0.00
2018-02-16T02:38:01.093Z,0.00
2018-02-16T02:39:01.086Z,0.00
2018-02-16T02:40:01.141Z,0.00
2018-02-16T02:41:01.078Z,0.00
2018-02-16T02:42:01.076Z,0.00
2018-02-16T02:43:01.072Z,0.00
2018-02-16T02:44:01.108Z,0.00
2018-02-16T02:45:01.066Z,0.00
2018-02-16T02:46:01.094Z,0.00
2018-02-16T02:47:01.052Z,0.00
2018-02-16T02:48:01.045Z,0.00
2018-02-16T02:49:01.064Z,0.00
2018-02-16T02:50:01.076Z,0.00
2018-02-16T02:51:01.048Z,0.00
2018-02-16T02:52:01.032Z,0.00
2018-02-16T02:53:01.024Z,0.00
2018-02-16T02:54:01.022Z,0.00
2018-02-16T02:55:01.051Z,0.00
2018-02-16T02:56:01.014Z,0.00
2018-02-16T02:57:01.005Z,0.00
2018-02-16T02:58:01.000Z,0.00
2018-02-16T02:59:00.996Z,0.00
2018-02-16T03:00:01.041Z,0.00
2018-02-16T03:01:00.984Z,0.00
2018-02-16T03:02:00.979Z,0.00
2018-02-16T03:03:00.980Z,0.00
2018-02-16T03:04:00.973Z,0.00
2018-02-16T03:05:01.021Z,0.00
2018-02-16T03:06:00.965Z,0.00
2018-02-16T03:07:00.961Z,0.00
2018-02-16T03:08:00.956Z,0.00
2018-02-16T03:09:00.945Z,0.00
2018-02-16T03:10:00.947Z,0.00
2018-02-16T03:11:00.982Z,0.00
2018-02-16T03:12:00.937Z,0.00
2018-02-16T03:13:00.930Z,0.00
2018-02-16T03:14:00.925Z,0.00
2018-02-16T03:15:00.920Z,0.00
2018-02-16T03:16:00.969Z,0.00
2018-02-16T03:17:00.914Z,0.00
2018-02-16T03:18:00.909Z,0.00
2018-02-16T03:19:00.903Z,0.00
2018-02-16T03:20:00.898Z,0.00
2018-02-16T03:21:00.896Z,0.00
2018-02-16T03:22:00.930Z,0.00
2018-02-16T03:23:00.888Z,0.00
2018-02-16T03:24:00.879Z,0.00
2018-02-16T03:25:00.873Z,0.00
2018-02-16T03:26:00.870Z,0.00
2018-02-16T03:27:00.904Z,0.00
2018-02-16T03:28:00.860Z,0.00
2018-02-16T03:29:00.858Z,0.00
2018-02-16T03:30:00.848Z,0.00
2018-02-16T03:31:00.848Z,0.00
2018-02-16T03:32:00.882Z,0.00
2018-02-16T03:33:00.839Z,0.00
2018-02-16T03:34:00.838Z,0.00
2018-02-16T03:35:00.828Z,0.00
2018-02-16T03:36:00.824Z,0.00
2018-02-16T03:37:00.874Z,0.00
2018-02-16T03:38:00.816Z,0.00
2018-02-16T03:39:00.811Z,0.00
2018-02-16T03:40:00.805Z,0.00
2018-02-16T03:41:00.805Z,0.00
2018-02-16T03:42:00.839Z,0.00
2018-02-16T03:43:00.829Z,0.00
2018-02-16T03:44:00.790Z,0.00
2018-02-16T03:45:00.783Z,0.00
2018-02-16T03:46:00.779Z,0.00
2018-02-16T03:47:00.772Z,0.00
2018-02-16T03:48:00.823Z,0.00
2018-02-16T03:49:00.762Z,0.00
2018-02-16T03:50:00.763Z,0.00
2018-02-16T03:51:00.797Z,0.00
2018-02-16T03:52:00.748Z,0.00
2018-02-16T03:53:00.744Z,0.00
2018-02-16T03:54:00.777Z,0.00
2018-02-16T03:55:00.740Z,0.00
2018-02-16T03:56:00.731Z,0.00
2018-02-16T03:57:00.728Z,0.00
2018-02-16T03:58:00.726Z,0.00
2018-02-16T03:59:00.761Z,0.00
2018-02-16T04:00:00.726Z,0.00
2018-02-16T04:01:00.710Z,0.00
2018-02-16T04:02:00.705Z,0.00
2018-02-16T04:03:00.698Z,0.00
2018-02-16T04:04:00.735Z,0.00
2018-02-16T04:05:00.691Z,0.00
2018-02-16T04:06:00.687Z,0.00
2018-02-16T04:07:00.681Z,0.00
2018-02-16T04:08:00.676Z,0.00
2018-02-16T04:09:00.727Z,0.00
2018-02-16T04:10:00.708Z,0.00
2018-02-16T04:11:00.663Z,0.00
2018-02-16T04:12:00.658Z,0.00
2018-02-16T04:13:00.653Z,0.00
2018-02-16T04:14:00.650Z,0.00
2018-02-16T04:15:00.704Z,0.00
2018-02-16T04:16:00.593Z,0.00
2018-02-16T04:17:00.601Z,0.00
2018-02-16T04:18:00.583Z,0.00
2018-02-16T04:19:00.594Z,0.00
2018-02-16T04:20:00.618Z,0.00
2018-02-16T04:21:00.611Z,0.00
2018-02-16T04:22:00.575Z,0.00
2018-02-16T04:23:00.568Z,0.00
2018-02-16T04:24:00.563Z,0.00
2018-02-16T04:25:00.551Z,0.00
2018-02-16T04:26:00.582Z,0.00
2018-02-16T04:27:00.551Z,0.00
2018-02-16T04:28:00.545Z,0.00
2018-02-16T04:29:00.532Z,0.00
2018-02-16T04:30:00.544Z,0.00
2018-02-16T04:31:00.567Z,0.00
2018-02-16T04:32:00.529Z,0.00
2018-02-16T04:33:00.515Z,0.00
2018-02-16T04:34:00.521Z,0.00
2018-02-16T04:35:00.552Z,0.00
2018-02-16T04:36:00.540Z,0.00
2018-02-16T04:37:00.507Z,0.00
2018-02-16T04:38:00.493Z,0.00
2018-02-16T04:39:00.495Z,0.00
2018-02-16T04:40:00.492Z,0.00
2018-02-16T04:41:00.535Z,0.00
2018-02-16T04:42:00.938Z,0.00
2018-02-16T04:43:00.475Z,0.00
2018-02-16T04:44:00.503Z,0.00
2018-02-16T04:45:00.460Z,0.00
2018-02-16T04:46:00.468Z,0.00
2018-02-16T04:47:00.500Z,0.00
2018-02-16T04:48:00.629Z,0.00
2018-02-16T04:49:00.445Z,0.00
2018-02-16T04:50:00.436Z,0.00
2018-02-16T04:51:00.437Z,0.00
2018-02-16T04:52:00.466Z,0.00
2018-02-16T04:53:00.437Z,0.00
2018-02-16T04:54:00.422Z,0.00
2018-02-16T04:55:00.426Z,0.00
2018-02-16T04:56:00.412Z,0.00
2018-02-16T04:57:00.456Z,0.00
2018-02-16T04:58:00.402Z,0.00
2018-02-16T04:59:00.406Z,0.00
2018-02-16T05:00:00.404Z,0.00
2018-02-16T05:01:00.823Z,0.00
2018-02-16T05:02:00.428Z,0.00
2018-02-16T05:03:00.381Z,0.00
2018-02-16T05:04:00.383Z,0.00
2018-02-16T05:05:00.381Z,0.00
2018-02-16T05:06:00.367Z,0.00
2018-02-16T05:07:00.416Z,0.00
2018-02-16T05:08:00.366Z,0.00
2018-02-16T05:09:00.365Z,0.00
2018-02-16T05:10:00.362Z,0.00
2018-02-16T05:11:00.345Z,0.00
2018-02-16T05:12:00.391Z,0.00
2018-02-16T05:13:00.336Z,0.00
2018-02-16T05:14:00.357Z,0.00
2018-02-16T05:15:00.369Z,0.00
2018-02-16T05:16:00.350Z,0.00
2018-02-16T05:17:00.436Z,0.00
2018-02-16T05:18:00.400Z,0.00
2018-02-16T05:19:00.372Z,0.00
2018-02-16T05:20:00.321Z,0.00
2018-02-16T05:21:00.380Z,0.00
2018-02-16T05:22:00.360Z,0.00
2018-02-16T05:23:00.301Z,0.00
2018-02-16T05:24:00.366Z,0.00
2018-02-16T05:25:00.405Z,0.00
2018-02-16T05:26:00.380Z,0.00
2018-02-16T05:27:00.299Z,0.00
2018-02-16T05:28:00.268Z,0.00
2018-02-16T05:29:00.304Z,0.00
2018-02-16T05:30:00.261Z,0.00
2018-02-16T05:31:00.265Z,0.00
2018-02-16T05:32:00.261Z,0.00
2018-02-16T05:33:00.249Z,0.00
2018-02-16T05:34:00.289Z,0.00
2018-02-16T05:35:00.239Z,0.00
2018-02-16T05:36:00.242Z,0.00
2018-02-16T05:37:00.273Z,0.00
2018-02-16T05:38:00.224Z,0.00
2018-02-16T05:39:00.262Z,0.00
2018-02-16T05:40:00.224Z,0.00
2018-02-16T05:41:00.211Z,0.00
2018-02-16T05:42:00.217Z,0.00
2018-02-16T05:43:00.210Z,0.00
2018-02-16T05:44:00.248Z,0.00
2018-02-16T05:45:00.191Z,0.00
2018-02-16T05:46:00.196Z,0.00
2018-02-16T05:47:00.196Z,0.00
2018-02-16T05:48:00.180Z,0.00
2018-02-16T05:49:00.219Z,0.00
2018-02-16T05:50:00.181Z,0.00
2018-02-16T05:51:00.172Z,0.00
2018-02-16T05:52:01.042Z,0.00
2018-02-16T05:53:00.153Z,0.00
2018-02-16T05:54:00.195Z,0.00
2018-02-16T05:55:00.154Z,0.00
2018-02-16T05:56:00.152Z,0.00
2018-02-16T05:57:00.173Z,0.00
2018-02-16T05:58:00.145Z,0.00
2018-02-16T05:59:00.136Z,0.00
2018-02-16T06:00:00.166Z,0.00
2018-02-16T06:01:00.125Z,0.00
2018-02-16T06:02:00.119Z,0.00
2018-02-16T06:03:00.105Z,0.00
2018-02-16T06:04:00.143Z,0.00
2018-02-16T06:05:00.107Z,0.00
2018-02-16T06:06:00.310Z,0.00
2018-02-16T06:07:00.123Z,0.00
2018-02-16T06:08:00.080Z,0.00
2018-02-16T06:09:00.123Z,0.00
2018-02-16T06:10:00.079Z,0.00
2018-02-16T06:11:00.075Z,5.63
2018-02-16T06:12:00.069Z,5.63
2018-02-16T06:13:00.062Z,5.63
2018-02-16T06:14:00.095Z,5.63
2018-02-16T06:15:00.057Z,5.63
2018-02-16T06:16:00.097Z,5.63
2018-02-16T06:17:00.036Z,11.25
2018-02-16T06:18:00.040Z,11.25
2018-02-16T06:19:00.800Z,11.25
2018-02-16T06:20:00.020Z,11.25
2018-02-16T06:21:00.027Z,16.88
2018-02-16T06:22:00.010Z,16.88
2018-02-16T06:23:00.013Z,16.88
2018-02-16T06:24:00.053Z,22.50
2018-02-16T06:24:59.993Z,22.50
2018-02-16T06:25:59.997Z,28.13
2018-02-16T06:26:59.991Z,28.13
2018-02-16T06:28:00.037Z,33.75
2018-02-16T06:28:59.984Z,33.75
2018-02-16T06:29:59.965Z,33.75
2018-02-16T06:30:59.991Z,39.38
2018-02-16T06:31:59.964Z,45.00
2018-02-16T06:33:00.002Z,45.00
2018-02-16T06:33:59.946Z,50.63
2018-02-16T06:34:59.947Z,56.25
2018-02-16T06:36:00.199Z,61.88
2018-02-16T06:36:59.937Z,67.50
2018-02-16T06:37:59.977Z,67.50
2018-02-16T06:38:59.917Z,73.13
2018-02-16T06:39:59.953Z,73.13
2018-02-16T06:40:59.905Z,78.75
2018-02-16T06:41:59.909Z,84.38
2018-02-16T06:42:59.905Z,84.38
2018-02-16T06:43:59.936Z,90.00
2018-02-16T06:44:59.940Z,95.63
2018-02-16T06:45:59.888Z,101.25
2018-02-16T06:46:59.873Z,101.25
2018-02-16T06:48:00.622Z,106.88
2018-02-16T06:48:59.873Z,112.50
2018-02-16T06:49:59.904Z,118.13
2018-02-16T06:50:59.854Z,118.13
2018-02-16T06:51:59.845Z,123.75
2018-02-16T06:52:59.849Z,123.75
2018-02-16T06:53:59.852Z,129.38
2018-02-16T06:54:59.873Z,135.00
2018-02-16T06:55:59.824Z,135.00
2018-02-16T06:56:59.823Z,140.63
2018-02-16T06:57:59.820Z,140.63
2018-02-16T06:58:59.822Z,146.25
2018-02-16T06:59:59.900Z,151.88
2018-02-16T07:00:59.804Z,157.50
2018-02-16T07:01:59.790Z,163.13
2018-02-16T07:02:59.797Z,163.13
2018-02-16T07:03:59.849Z,168.75
2018-02-16T07:04:59.775Z,174.38
2018-02-16T07:05:59.780Z,174.38
2018-02-16T07:06:59.772Z,180.00
2018-02-16T07:07:59.767Z,180.00
2018-02-16T07:08:59.753Z,185.63
2018-02-16T07:09:59.783Z,196.88
2018-02-16T07:10:59.797Z,202.50
2018-02-16T07:11:59.734Z,208.13
2018-02-16T07:13:00.568Z,213.75
2018-02-16T07:13:59.725Z,219.38
2018-02-16T07:14:59.771Z,225.00
2018-02-16T07:15:59.724Z,230.63
2018-02-16T07:16:59.746Z,253.13
2018-02-16T07:17:59.708Z,270.00
2018-02-16T07:18:59.695Z,286.88
2018-02-16T07:19:59.691Z,320.63
2018-02-16T07:20:59.693Z,348.75
2018-02-16T07:21:59.735Z,365.63
2018-02-16T07:22:59.686Z,382.50
2018-02-16T07:23:59.682Z,388.13
2018-02-16T07:24:59.674Z,399.38
2018-02-16T07:25:59.714Z,405.00
2018-02-16T07:26:59.679Z,410.63
2018-02-16T07:27:59.710Z,416.25
2018-02-16T07:28:59.655Z,433.13
2018-02-16T07:29:59.665Z,438.75
2018-02-16T07:30:59.654Z,450.00
2018-02-16T07:31:59.644Z,466.88
2018-02-16T07:32:59.686Z,483.75
2018-02-16T07:33:59.726Z,506.25
2018-02-16T07:34:59.642Z,585.00
2018-02-16T07:35:59.637Z,663.75
2018-02-16T07:36:59.639Z,725.63
2018-02-16T07:37:59.663Z,787.50
2018-02-16T07:38:59.632Z,815.63
2018-02-16T07:39:59.623Z,860.63
2018-02-16T07:40:59.620Z,883.13
2018-02-16T07:41:59.629Z,871.88
2018-02-16T07:42:59.675Z,849.38
2018-02-16T07:43:59.616Z,855.00
2018-02-16T07:45:00.506Z,888.75
2018-02-16T07:45:59.653Z,905.63
2018-02-16T07:46:59.618Z,933.75
2018-02-16T07:47:59.613Z,956.25
2018-02-16T07:48:59.651Z,967.50
2018-02-16T07:49:59.615Z,967.50
2018-02-16T07:50:59.621Z,939.38
2018-02-16T07:51:59.623Z,928.13
2018-02-16T07:52:59.613Z,945.00
2018-02-16T07:53:59.665Z,984.38
2018-02-16T07:54:59.619Z,1006.88
2018-02-16T07:55:59.621Z,1023.75
2018-02-16T07:56:59.623Z,1035.00
2018-02-16T07:57:59.620Z,1046.25
2018-02-16T07:58:59.679Z,1080.00
2018-02-16T07:59:59.659Z,1091.25
2018-02-16T08:00:59.629Z,1102.50
2018-02-16T08:01:59.620Z,1125.00
2018-02-16T08:02:59.632Z,1147.50
2018-02-16T08:03:59.633Z,1175.63
2018-02-16T08:04:59.679Z,1215.00
2018-02-16T08:05:59.632Z,1215.00
2018-02-16T08:06:59.636Z,1215.00
2018-02-16T08:07:59.633Z,1203.75
2018-02-16T08:08:59.636Z,1192.50
2018-02-16T08:09:59.686Z,1209.38
2018-02-16T08:10:59.651Z,1215.00
2018-02-16T08:11:59.651Z,1243.13
2018-02-16T08:12:59.646Z,1310.63
2018-02-16T08:13:59.659Z,1338.75
2018-02-16T08:14:59.740Z,1366.88
2018-02-16T08:15:59.655Z,1383.75
2018-02-16T08:16:59.660Z,1366.88
2018-02-16T08:17:59.675Z,1344.38
2018-02-16T08:18:59.680Z,1366.88
2018-02-16T08:19:59.713Z,1389.38
2018-02-16T08:20:59.676Z,1389.38
2018-02-16T08:21:59.687Z,1406.25
2018-02-16T08:22:59.683Z,1417.50
2018-02-16T08:23:59.697Z,1428.75
2018-02-16T08:24:59.728Z,1462.50
2018-02-16T08:25:59.703Z,1490.63
2018-02-16T08:26:59.701Z,1541.25
2018-02-16T08:27:59.717Z,1541.25
2018-02-16T08:28:59.719Z,1496.25
2018-02-16T08:29:59.762Z,1485.00
2018-02-16T08:30:59.720Z,1440.00
2018-02-16T08:31:59.723Z,1411.88
2018-02-16T08:32:59.728Z,1434.38
2018-02-16T08:33:59.735Z,1423.13
2018-02-16T08:34:59.790Z,1479.38
2018-02-16T08:35:59.787Z,1518.75
2018-02-16T08:36:59.759Z,1428.75
2018-02-16T08:37:59.764Z,1361.25
2018-02-16T08:38:59.761Z,1305.00
2018-02-16T08:39:59.763Z,1288.13
2018-02-16T08:40:59.821Z,1305.00
2018-02-16T08:41:59.777Z,1327.50
2018-02-16T08:42:59.782Z,1350.00
2018-02-16T08:43:59.799Z,1372.50
2018-02-16T08:44:59.805Z,1338.75
2018-02-16T08:45:59.859Z,1271.25
2018-02-16T08:46:59.817Z,1231.88
2018-02-16T08:47:59.811Z,1192.50
2018-02-16T08:48:59.826Z,1186.88
2018-02-16T08:49:59.877Z,1186.88
2018-02-16T08:50:59.831Z,1198.13
2018-02-16T08:51:59.885Z,1192.50
2018-02-16T08:52:59.854Z,1203.75
2018-02-16T08:53:59.867Z,1198.13
2018-02-16T08:54:59.868Z,1175.63
2018-02-16T08:55:59.875Z,1153.13
2018-02-16T08:56:59.913Z,1130.63
2018-02-16T08:57:59.888Z,1147.50
2018-02-16T08:58:59.883Z,1158.75
2018-02-16T08:59:59.901Z,1186.88
2018-02-16T09:00:59.909Z,1226.25
2018-02-16T09:01:59.952Z,1282.50
2018-02-16T09:02:59.912Z,1316.25
2018-02-16T09:03:59.919Z,1355.63
2018-02-16T09:04:59.934Z,1378.13
2018-02-16T09:05:59.944Z,1428.75
2018-02-16T09:06:59.995Z,1501.88
2018-02-16T09:07:59.980Z,1518.75
2018-02-16T09:08:59.953Z,1580.63
2018-02-16T09:10:00.000Z,1665.00
2018-02-16T09:10:59.977Z,1732.50
2018-02-16T09:11:59.977Z,1738.13
2018-02-16T09:13:00.043Z,1732.50
2018-02-16T09:14:00.005Z,1665.00
2018-02-16T09:15:00.047Z,1603.13
2018-02-16T09:16:00.037Z,1591.88
2018-02-16T09:17:00.028Z,1569.38
2018-02-16T09:18:00.055Z,1507.50
2018-02-16T09:19:00.081Z,1479.38
2018-02-16T09:20:00.048Z,1501.88
2018-02-16T09:21:00.047Z,1586.25
2018-02-16T09:22:00.065Z,1597.50
2018-02-16T09:23:00.075Z,1575.00
2018-02-16T09:24:00.123Z,1541.25
2018-02-16T09:25:00.100Z,1496.25
2018-02-16T09:26:00.088Z,1490.63
2018-02-16T09:27:00.116Z,1535.63
2018-02-16T09:28:00.131Z,1569.38
2018-02-16T09:29:00.159Z,1591.88
2018-02-16T09:30:00.181Z,1620.00
2018-02-16T09:31:00.144Z,1636.88
2018-02-16T09:32:00.151Z,1642.50
2018-02-16T09:33:00.164Z,1659.38
2018-02-16T09:34:00.171Z,1636.88
2018-02-16T09:35:00.333Z,1552.50
2018-02-16T09:36:00.238Z,1473.75
2018-02-16T09:37:00.192Z,1423.13
2018-02-16T09:38:00.208Z,1378.13
2018-02-16T09:39:00.219Z,1366.88
2018-02-16T09:40:01.103Z,1361.25
2018-02-16T09:41:00.272Z,1366.88
2018-02-16T09:42:00.236Z,1383.75
2018-02-16T09:43:00.247Z,1395.00
2018-02-16T09:44:00.265Z,1389.38
2018-02-16T09:45:01.177Z,1395.00
2018-02-16T09:46:00.329Z,1406.25
2018-02-16T09:47:00.296Z,1440.00
2018-02-16T09:48:00.378Z,1451.25
2018-02-16T09:49:00.304Z,1468.13
2018-02-16T09:50:00.325Z,1530.00
2018-02-16T09:51:00.916Z,1552.50
2018-02-16T09:52:00.768Z,1552.50
2018-02-16T09:53:00.530Z,1603.13
2018-02-16T09:54:00.370Z,1721.25
2018-02-16T09:55:00.408Z,1743.75
2018-02-16T09:56:00.422Z,1726.88
2018-02-16T09:57:00.389Z,1755.00
2018-02-16T09:58:01.692Z,1805.63
2018-02-16T09:59:00.698Z,1951.88
2018-02-16T10:00:00.433Z,2081.25
2018-02-16T10:01:00.483Z,2221.88
2018-02-16T10:02:00.456Z,2289.38
2018-02-16T10:03:00.456Z,2311.88
2018-02-16T10:04:00.473Z,2407.50
2018-02-16T10:05:00.529Z,2148.75
2018-02-16T10:06:00.491Z,1738.13
2018-02-16T10:07:00.500Z,1620.00
2018-02-16T10:08:00.726Z,1552.50
2018-02-16T10:09:01.276Z,1558.13
2018-02-16T10:10:00.990Z,1569.38
2018-02-16T10:11:00.891Z,1681.88
2018-02-16T10:13:40.199Z,1974.38
2018-02-16T10:14:40.140Z,1940.63
2018-02-16T10:15:40.207Z,1845.00
2018-02-16T10:16:40.180Z,1839.38
2018-02-16T10:17:41.742Z,1912.50
2018-02-16T10:18:42.199Z,1940.63
2018-02-16T10:19:40.226Z,1935.00
2018-02-16T10:20:40.271Z,1935.00
2018-02-16T10:21:40.231Z,1918.13
2018-02-16T10:22:40.236Z,1918.13
2018-02-16T10:23:40.244Z,1890.00
2018-02-16T10:24:40.573Z,1935.00
2018-02-16T10:25:40.321Z,1912.50
2018-02-16T10:26:40.283Z,1935.00
2018-02-16T10:27:40.301Z,1929.38
2018-02-16T10:28:40.304Z,1935.00
2018-02-16T10:29:40.353Z,1940.63
2018-02-16T10:30:40.339Z,1985.63
2018-02-16T10:31:40.337Z,1974.38
2018-02-16T10:32:41.192Z,1788.75
2018-02-16T10:33:40.398Z,1738.13
2018-02-16T10:34:42.193Z,1867.50
2018-02-16T10:35:41.256Z,1856.25
2018-02-16T10:36:40.540Z,1867.50
2018-02-16T10:37:40.414Z,1951.88
2018-02-16T10:38:40.416Z,1873.13
2018-02-16T10:39:40.466Z,1890.00
2018-02-16T10:40:40.448Z,1929.38
2018-02-16T10:41:40.461Z,1923.75
2018-02-16T10:42:40.464Z,1929.38
2018-02-16T10:43:40.486Z,1912.50
2018-02-16T10:44:40.539Z,1918.13
2018-02-16T10:45:40.513Z,1861.88
2018-02-16T10:46:41.257Z,1923.75
2018-02-16T10:47:40.634Z,1935.00
2018-02-16T10:48:40.769Z,1861.88
2018-02-16T10:49:40.601Z,1929.38
2018-02-16T10:50:40.558Z,1918.13
2018-02-16T10:51:40.573Z,1822.50
2018-02-16T10:52:40.597Z,1935.00
2018-02-16T10:53:45.356Z,2025.00
2018-02-16T10:54:40.777Z,1906.88
2018-02-16T10:55:40.629Z,1771.88
2018-02-16T10:56:40.632Z,1816.88
2018-02-16T10:57:40.646Z,1918.13
2018-02-16T10:58:40.654Z,1957.50
2018-02-16T10:59:40.709Z,1929.38
2018-02-16T11:00:40.687Z,1906.88
2018-02-16T11:01:40.701Z,1912.50
2018-02-16T11:02:40.703Z,1946.25
2018-02-16T11:03:40.718Z,1963.13
2018-02-16T11:04:40.765Z,1929.38
2018-02-16T11:05:40.739Z,1839.38
2018-02-16T11:06:40.767Z,1760.63
2018-02-16T11:07:40.763Z,1867.50
2018-02-16T11:08:40.787Z,1985.63
2018-02-16T11:09:40.828Z,1957.50
2018-02-16T11:10:40.807Z,1873.13
2018-02-16T11:11:40.820Z,1890.00
2018-02-16T11:12:40.832Z,1940.63
2018-02-16T11:13:40.837Z,1963.13
2018-02-16T11:14:40.902Z,1901.25
2018-02-16T11:15:40.914Z,1901.25
2018-02-16T11:16:40.886Z,1884.38
2018-02-16T11:17:40.899Z,1873.13
2018-02-16T11:18:40.900Z,1912.50
2018-02-16T11:19:40.959Z,1940.63
2018-02-16T11:20:40.966Z,1923.75
2018-02-16T11:21:40.947Z,1912.50
2018-02-16T11:22:40.966Z,1906.88
2018-02-16T11:23:40.978Z,1884.38
2018-02-16T11:24:41.027Z,1968.75
2018-02-16T11:25:41.036Z,2002.50
2018-02-16T11:26:41.006Z,2013.75
2018-02-16T11:27:41.026Z,2098.13
2018-02-16T11:28:41.039Z,2171.25
2018-02-16T11:29:41.087Z,2160.00
2018-02-16T11:30:41.107Z,2205.00
2018-02-16T11:31:41.072Z,2255.63
2018-02-16T11:32:41.093Z,2424.38
2018-02-16T11:33:41.108Z,2565.00
2018-02-16T11:34:41.109Z,2553.75
2018-02-16T11:35:41.179Z,2340.00
2018-02-16T11:36:41.147Z,1141.88
2018-02-16T11:37:41.160Z,916.88
2018-02-16T11:38:41.174Z,1018.13
2018-02-16T11:39:41.186Z,2171.25
2018-02-16T11:40:41.230Z,2278.13
2018-02-16T11:41:41.253Z,2413.13
2018-02-16T11:42:41.231Z,894.38
2018-02-16T11:43:41.236Z,1305.00
2018-02-16T11:44:41.242Z,888.75
2018-02-16T11:45:41.291Z,810.00
2018-02-16T11:46:41.264Z,832.50
2018-02-16T11:47:41.284Z,849.38
2018-02-16T11:48:41.285Z,888.75
2018-02-16T11:49:41.298Z,2221.88
2018-02-16T11:50:41.358Z,1209.38
2018-02-16T11:51:41.315Z,815.63
2018-02-16T11:52:41.328Z,753.75
2018-02-16T11:53:41.349Z,725.63
2018-02-16T11:54:41.340Z,753.75
2018-02-16T11:55:41.385Z,838.13
2018-02-16T11:56:41.365Z,2469.38
2018-02-16T11:57:41.358Z,1029.38
2018-02-16T11:58:41.385Z,810.00
2018-02-16T11:59:41.385Z,675.00
2018-02-16T12:00:41.426Z,635.63
2018-02-16T12:01:41.386Z,618.75
2018-02-16T12:02:41.388Z,618.75
2018-02-16T12:03:41.406Z,618.75
2018-02-16T12:04:41.407Z,613.13
2018-02-16T12:05:41.453Z,573.75
2018-02-16T12:06:41.422Z,545.63
2018-02-16T12:07:41.430Z,551.25
2018-02-16T12:08:41.416Z,551.25
2018-02-16T12:09:41.458Z,545.63
2018-02-16T12:10:41.433Z,528.75
2018-02-16T12:11:41.466Z,506.25
2018-02-16T12:12:41.428Z,483.75
2018-02-16T12:13:41.432Z,450.00
2018-02-16T12:14:41.440Z,421.88
2018-02-16T12:15:41.441Z,399.38
2018-02-16T12:16:41.484Z,388.13
2018-02-16T12:17:41.441Z,393.75
2018-02-16T12:18:41.447Z,421.88
2018-02-16T12:19:41.445Z,466.88
2018-02-16T12:20:41.488Z,540.00
2018-02-16T12:21:41.451Z,697.50
2018-02-16T12:22:41.485Z,697.50
2018-02-16T12:23:41.448Z,697.50
2018-02-16T12:24:41.461Z,675.00
2018-02-16T12:25:41.462Z,675.00
2018-02-16T12:26:41.461Z,883.13
2018-02-16T12:27:41.502Z,646.88
2018-02-16T12:28:41.452Z,652.50
2018-02-16T12:29:41.450Z,680.63
2018-02-16T12:30:41.470Z,748.13
2018-02-16T12:31:41.455Z,2745.00
2018-02-16T12:32:41.509Z,1068.75
2018-02-16T12:33:41.454Z,759.38
2018-02-16T12:34:41.456Z,731.25
2018-02-16T12:35:42.366Z,686.25
2018-02-16T12:36:41.468Z,663.75
2018-02-16T12:37:41.504Z,641.25
2018-02-16T12:38:41.467Z,630.00
2018-02-16T12:39:41.474Z,613.13
2018-02-16T12:40:41.517Z,590.63
2018-02-16T12:41:41.457Z,556.88
2018-02-16T12:42:41.463Z,528.75
2018-02-16T12:43:41.461Z,495.00
2018-02-16T12:44:41.513Z,461.25
2018-02-16T12:45:41.469Z,433.13
2018-02-16T12:46:41.469Z,416.25